• We've upgraded our forums. Please post any issues/requests in this thread.

Severe issues with newly installed GTX 670

Joined
Jun 3, 2007
Messages
22,398 (5.83/day)
Likes
8,921
Location
'Merica. The Great SOUTH!
System Name The Mailbox 4.5
Processor Intel i7 2600k @ 4.2GHz
Motherboard Gigabyte Z77X-UP5 TH Intel LGA 1155
Cooling Scythe Katana 4
Memory G.SKILL Sniper Series 16GB DDR3 1866: 9-9-9-24
Video Card(s) MSI 1080 "Duke" with 8Gb of RAM. Boost Clock 1847 MHz
Storage 256Gb M4 SSD, 500Gb WD (7200) 128Gb Agelity 4 SSD
Display(s) LG 29" Class 21:9 UltraWide® IPS LED Monitor 2560 x 1080
Case Cooler Master 922 HAF
Audio Device(s) SupremeFX X-Fi with Bose Companion 2 speakers.
Power Supply SeaSonic X Series X650 Gold
Mouse SteelSeries Sensei (RAW) and a Wacom Intuos 4 tablet.
Keyboard Razer BlackWidow
Software Windows 10 Pro (64-bit)
Benchmark Scores Benching is for bitches.
#26
So after all the tweaking today as of right now i still have the computer freeze issue in games. Though since the beginning of the day i am able to go longer its more of a 10 minutes before freeze instead of a 5 minutes before freeze, what next?
Check what Alex MT said. Also did your ATI card ever do this? Ever?
 
Joined
Jan 22, 2013
Messages
33 (0.02/day)
Likes
1
#27
same thing

I made sure that it was plugged in properly with the 6 pins provided with the card and even tested some 6 pins i already had and same story.
Heres the GPU-Z Log of a different and new incident. My games instead of crashing and me having to do a hard shut down, everything in game was torn and i couldnt see anything except for what apeared to be dirt. the enemies were still shooting at me and i could shoot back but all i saw on screen was a single texture. Heres the log for that:

Date , GPU Core Clock [MHz] , GPU Memory Clock [MHz] , GPU Temperature [°C] , Fan Speed (%) [%] , Fan Speed (RPM) [RPM] , Memory Used [MB] , GPU Load [%] , Memory Controller Load [%] , Video Engine Load [%] , Power Consumption [% TDP] , VDDC [V] ,

2013-01-30 05:13:06 , 324.0 , 162.0 , 30.0 , 40 , 1320 , 158 , 0 , 2 , 0 , 13.8 , 0.9870 ,

2013-01-30 05:13:07 , 324.0 , 162.0 , 30.0 , 40 , 1320 , 155 , 0 , 2 , 0 , 13.8 , 0.9870 ,

2013-01-30 05:13:08 , 324.0 , 162.0 , 30.0 , 40 , 1320 , 155 , 0 , 2 , 0 , 13.8 , 0.9870 ,

2013-01-30 05:13:09 , 324.0 , 162.0 , 30.0 , 40 , 1290 , 155 , 0 , 2 , 0 , 13.8 , 0.9870 ,

2013-01-30 05:13:10 , 324.0 , 162.0 , 30.0 , 40 , 1320 , 155 , 0 , 2 , 0 , 13.8 , 0.9870 ,

2013-01-30 05:13:11 , 324.0 , 162.0 , 30.0 , 40 , 1320 , 155 , 0 , 2 , 0 , 13.7 , 0.9870 ,

2013-01-30 05:13:12 , 324.0 , 162.0 , 30.0 , 40 , 1320 , 155 , 0 , 2 , 0 , 13.7 , 0.9870 ,

2013-01-30 05:13:13 , 324.0 , 162.0 , 30.0 , 40 , 1320 , 155 , 0 , 2 , 0 , 13.7 , 0.9870 ,

2013-01-30 05:13:14 , 324.0 , 162.0 , 30.0 , 40 , 1320 , 155 , 0 , 2 , 0 , 13.7 , 0.9870 ,

2013-01-30 05:13:15 , 324.0 , 162.0 , 30.0 , 40 , 1320 , 155 , 0 , 2 , 0 , 13.7 , 0.9870 ,

2013-01-30 05:13:16 , 324.0 , 162.0 , 30.0 , 40 , 1320 , 155 , 0 , 2 , 0 , 13.7 , 0.9870 ,

2013-01-30 05:13:17 , 324.0 , 162.0 , 30.0 , 40 , 1320 , 155 , 0 , 2 , 0 , 13.7 , 0.9870 ,

2013-01-30 05:13:18 , 324.0 , 162.0 , 30.0 , 40 , 1320 , 155 , 0 , 2 , 0 , 13.7 , 0.9870 ,

2013-01-30 05:13:19 , 324.0 , 162.0 , 30.0 , 40 , 1320 , 155 , 0 , 2 , 0 , 13.7 , 0.9870 ,

2013-01-30 05:13:20 , 324.0 , 162.0 , 30.0 , 40 , 1320 , 155 , 0 , 2 , 0 , 13.7 , 0.9870 ,

2013-01-30 05:13:21 , 324.0 , 162.0 , 30.0 , 40 , 1290 , 155 , 1 , 3 , 0 , 13.7 , 0.9870 ,

2013-01-30 05:13:22 , 324.0 , 162.0 , 30.0 , 40 , 1320 , 155 , 1 , 3 , 0 , 13.7 , 0.9870 ,

2013-01-30 05:13:23 , 324.0 , 162.0 , 30.0 , 40 , 1290 , 157 , 0 , 2 , 0 , 13.9 , 0.9870 ,

2013-01-30 05:13:24 , 324.0 , 162.0 , 30.0 , 40 , 1320 , 100 , 1 , 2 , 0 , 13.9 , 0.9870 ,

2013-01-30 05:13:25 , 324.0 , 162.0 , 30.0 , 40 , 1320 , 100 , 1 , 3 , 0 , 13.9 , 0.9870 ,

2013-01-30 05:13:26 , 324.0 , 162.0 , 30.0 , 40 , 1320 , 100 , 1 , 2 , 0 , 13.9 , 0.9870 ,

2013-01-30 05:13:27 , 940.6 , 1502.3 , 32.0 , 40 , 1320 , 100 , 0 , 0 , 0 , 34.1 , 1.0750 ,

2013-01-30 05:13:28 , 940.6 , 1502.3 , 32.0 , 40 , 1320 , 100 , 0 , 0 , 0 , 34.2 , 1.0750 ,

2013-01-30 05:13:29 , 940.6 , 1502.3 , 32.0 , 40 , 1290 , 100 , 0 , 0 , 0 , 34.2 , 1.0750 ,

2013-01-30 05:13:30 , 940.6 , 1502.3 , 32.0 , 40 , 1320 , 100 , 0 , 0 , 0 , 34.1 , 1.0750 ,

2013-01-30 05:13:31 , 940.6 , 1502.3 , 32.0 , 40 , 1320 , 100 , 0 , 0 , 0 , 34.1 , 1.0750 ,

2013-01-30 05:13:32 , 940.6 , 1502.3 , 33.0 , 40 , 1320 , 100 , 0 , 0 , 0 , 34.0 , 1.0750 ,

2013-01-30 05:13:33 , 757.7 , 1502.3 , 32.0 , 40 , 1320 , 100 , 0 , 0 , 0 , 32.1 , 0.9870 ,

2013-01-30 05:13:34 , 757.7 , 1502.3 , 32.0 , 40 , 1320 , 107 , 4 , 0 , 0 , 32.6 , 0.9870 ,

2013-01-30 05:13:35 , 757.7 , 405.0 , 32.0 , 40 , 1320 , 103 , 0 , 1 , 0 , 32.1 , 0.9870 ,

2013-01-30 05:13:36 , 757.7 , 405.0 , 31.0 , 40 , 1320 , 103 , 0 , 1 , 0 , 21.3 , 0.9870 ,

2013-01-30 05:13:37 , 757.7 , 405.0 , 31.0 , 40 , 1320 , 103 , 0 , 1 , 0 , 21.3 , 0.9870 ,

2013-01-30 05:13:38 , 324.0 , 162.0 , 31.0 , 40 , 1320 , 103 , 1 , 2 , 0 , 21.3 , 0.9870 ,

2013-01-30 05:13:39 , 324.0 , 162.0 , 31.0 , 40 , 1320 , 103 , 0 , 2 , 0 , 21.3 , 0.9870 ,

2013-01-30 05:13:40 , 324.0 , 162.0 , 31.0 , 40 , 1320 , 103 , 1 , 3 , 0 , 18.9 , 0.9870 ,

2013-01-30 05:13:41 , 324.0 , 162.0 , 31.0 , 40 , 1320 , 103 , 0 , 2 , 0 , 18.9 , 0.9870 ,

2013-01-30 05:13:42 , 324.0 , 162.0 , 30.0 , 40 , 1320 , 103 , 0 , 2 , 0 , 18.9 , 0.9870 ,

2013-01-30 05:13:43 , 324.0 , 162.0 , 30.0 , 40 , 1320 , 103 , 0 , 2 , 0 , 18.9 , 0.9870 ,

2013-01-30 05:13:44 , 324.0 , 162.0 , 30.0 , 40 , 1320 , 103 , 0 , 2 , 0 , 18.9 , 0.9870 ,

2013-01-30 05:13:45 , 324.0 , 162.0 , 30.0 , 40 , 1320 , 103 , 0 , 2 , 0 , 18.9 , 0.9870 ,

2013-01-30 05:13:46 , 324.0 , 162.0 , 30.0 , 40 , 1320 , 103 , 2 , 3 , 0 , 13.7 , 0.9870 ,

2013-01-30 05:13:47 , 324.0 , 162.0 , 30.0 , 40 , 1320 , 103 , 0 , 2 , 0 , 13.7 , 0.9870 ,

2013-01-30 05:13:48 , 324.0 , 162.0 , 30.0 , 40 , 1320 , 103 , 0 , 2 , 0 , 13.7 , 0.9870 ,

2013-01-30 05:13:49 , 324.0 , 162.0 , 30.0 , 40 , 1320 , 103 , 0 , 2 , 0 , 13.7 , 0.9870 ,

2013-01-30 05:13:50 , 324.0 , 162.0 , 30.0 , 40 , 1290 , 103 , 0 , 2 , 0 , 13.7 , 0.9870 ,

2013-01-30 05:13:51 , 324.0 , 162.0 , 30.0 , 40 , 1320 , 103 , 0 , 2 , 0 , 13.7 , 0.9870 ,

2013-01-30 05:13:52 , 940.6 , 1502.3 , 32.0 , 40 , 1320 , 103 , 0 , 0 , 0 , 33.8 , 1.0750 ,

2013-01-30 05:13:53 , 940.6 , 1502.3 , 32.0 , 40 , 1320 , 103 , 0 , 0 , 0 , 34.0 , 1.0750 ,

2013-01-30 05:13:54 , 940.6 , 1502.3 , 32.0 , 40 , 1290 , 103 , 0 , 0 , 0 , 34.0 , 1.0750 ,

2013-01-30 05:13:55 , 940.6 , 1502.3 , 33.0 , 40 , 1320 , 103 , 0 , 0 , 0 , 34.7 , 1.0750 ,

2013-01-30 05:13:56 , 940.6 , 1502.3 , 33.0 , 40 , 1320 , 104 , 0 , 0 , 0 , 34.6 , 1.0750 ,

2013-01-30 05:13:57 , 757.7 , 1502.3 , 33.0 , 40 , 1320 , 104 , 0 , 0 , 0 , 32.1 , 0.9870 ,

2013-01-30 05:13:58 , 757.7 , 1502.3 , 33.0 , 40 , 1320 , 104 , 0 , 0 , 0 , 32.1 , 0.9870 ,

2013-01-30 05:13:59 , 757.7 , 405.0 , 32.0 , 40 , 1320 , 104 , 0 , 1 , 0 , 21.3 , 0.9870 ,

2013-01-30 05:14:00 , 940.6 , 1502.3 , 32.0 , 40 , 1350 , 104 , 0 , 0 , 0 , 32.6 , 1.0750 ,

2013-01-30 05:14:01 , 940.6 , 1502.3 , 33.0 , 40 , 1320 , 104 , 0 , 0 , 0 , 34.6 , 1.0750 ,

2013-01-30 05:14:02 , 940.6 , 1502.3 , 33.0 , 40 , 1320 , 104 , 0 , 0 , 0 , 34.0 , 1.0750 ,

2013-01-30 05:14:03 , 940.6 , 1502.3 , 33.0 , 40 , 1320 , 113 , 1 , 1 , 0 , 33.7 , 1.0750 ,

2013-01-30 05:14:04 , 940.6 , 1502.3 , 33.0 , 40 , 1320 , 113 , 0 , 0 , 0 , 33.7 , 1.0750 ,

2013-01-30 05:14:05 , 940.6 , 1502.3 , 33.0 , 40 , 1320 , 115 , 0 , 0 , 0 , 33.7 , 1.0750 ,

2013-01-30 05:14:06 , 757.7 , 1502.3 , 33.0 , 40 , 1320 , 115 , 0 , 0 , 0 , 31.8 , 0.9870 ,

2013-01-30 05:14:07 , 757.7 , 1502.3 , 33.0 , 40 , 1320 , 115 , 0 , 0 , 0 , 31.8 , 0.9870 ,

2013-01-30 05:14:08 , 940.6 , 1502.3 , 33.0 , 40 , 1320 , 382 , 16 , 1 , 0 , 34.1 , 1.0750 ,

2013-01-30 05:14:09 , 940.6 , 1502.3 , 34.0 , 40 , 1350 , 398 , 28 , 8 , 0 , 43.4 , 1.0750 ,

2013-01-30 05:14:10 , 940.6 , 1502.3 , 35.0 , 40 , 1320 , 398 , 25 , 8 , 0 , 44.5 , 1.0750 ,

2013-01-30 05:14:11 , 757.7 , 1502.3 , 34.0 , 40 , 1320 , 398 , 31 , 8 , 0 , 44.8 , 0.9870 ,

2013-01-30 05:14:12 , 757.7 , 1502.3 , 35.0 , 40 , 1320 , 398 , 31 , 8 , 0 , 41.3 , 0.9870 ,

2013-01-30 05:14:13 , 757.7 , 1502.3 , 35.0 , 40 , 1320 , 398 , 30 , 7 , 0 , 40.2 , 0.9870 ,

2013-01-30 05:14:14 , 757.7 , 405.0 , 34.0 , 40 , 1320 , 398 , 39 , 28 , 0 , 32.5 , 0.9870 ,

2013-01-30 05:14:15 , 757.7 , 405.0 , 34.0 , 40 , 1350 , 398 , 42 , 29 , 0 , 31.5 , 0.9870 ,

2013-01-30 05:14:16 , 757.7 , 405.0 , 34.0 , 40 , 1320 , 398 , 39 , 27 , 0 , 30.7 , 0.9870 ,

2013-01-30 05:14:17 , 757.7 , 405.0 , 34.0 , 40 , 1290 , 398 , 42 , 29 , 0 , 31.7 , 0.9870 ,

2013-01-30 05:14:18 , 757.7 , 405.0 , 34.0 , 40 , 1320 , 398 , 43 , 29 , 0 , 31.8 , 0.9870 ,

2013-01-30 05:14:19 , 757.7 , 405.0 , 34.0 , 40 , 1320 , 398 , 36 , 24 , 0 , 30.1 , 0.9870 ,

2013-01-30 05:14:20 , 757.7 , 405.0 , 34.0 , 40 , 1320 , 398 , 41 , 28 , 0 , 30.3 , 0.9870 ,

2013-01-30 05:14:21 , 757.7 , 405.0 , 34.0 , 40 , 1350 , 398 , 40 , 27 , 0 , 31.3 , 0.9870 ,

2013-01-30 05:14:22 , 757.7 , 405.0 , 34.0 , 40 , 1320 , 398 , 37 , 26 , 0 , 30.8 , 0.9870 ,

2013-01-30 05:14:23 , 757.7 , 405.0 , 34.0 , 40 , 1320 , 398 , 41 , 28 , 0 , 31.3 , 0.9870 ,

2013-01-30 05:14:24 , 757.7 , 405.0 , 34.0 , 40 , 1320 , 398 , 37 , 26 , 0 , 30.6 , 0.9870 ,

2013-01-30 05:14:25 , 757.7 , 405.0 , 34.0 , 40 , 1320 , 398 , 39 , 27 , 0 , 29.6 , 0.9870 ,

2013-01-30 05:14:26 , 757.7 , 405.0 , 34.0 , 40 , 1320 , 398 , 41 , 28 , 0 , 33.4 , 0.9870 ,

2013-01-30 05:14:27 , 757.7 , 405.0 , 34.0 , 40 , 1320 , 398 , 37 , 25 , 0 , 30.7 , 0.9870 ,

2013-01-30 05:14:28 , 757.7 , 405.0 , 34.0 , 40 , 1320 , 398 , 41 , 28 , 0 , 29.7 , 0.9870 ,

2013-01-30 05:14:29 , 757.7 , 405.0 , 34.0 , 40 , 1350 , 398 , 41 , 28 , 0 , 31.4 , 0.9870 ,

2013-01-30 05:14:30 , 757.7 , 405.0 , 34.0 , 40 , 1320 , 398 , 37 , 26 , 0 , 31.6 , 0.9870 ,

2013-01-30 05:14:31 , 757.7 , 405.0 , 34.0 , 40 , 1320 , 398 , 41 , 28 , 0 , 30.1 , 0.9870 ,

2013-01-30 05:14:32 , 757.7 , 405.0 , 34.0 , 40 , 1320 , 398 , 39 , 26 , 0 , 31.1 , 0.9870 ,

2013-01-30 05:14:33 , 757.7 , 405.0 , 34.0 , 40 , 1320 , 398 , 37 , 25 , 0 , 30.7 , 0.9870 ,

2013-01-30 05:14:34 , 757.7 , 405.0 , 34.0 , 40 , 1320 , 398 , 41 , 28 , 0 , 31.4 , 0.9870 ,

2013-01-30 05:14:35 , 757.7 , 405.0 , 34.0 , 40 , 1350 , 398 , 40 , 27 , 0 , 29.8 , 0.9870 ,

2013-01-30 05:14:36 , 757.7 , 405.0 , 35.0 , 40 , 1320 , 398 , 39 , 26 , 0 , 31.4 , 0.9870 ,

2013-01-30 05:14:37 , 757.7 , 405.0 , 35.0 , 40 , 1350 , 398 , 43 , 26 , 0 , 32.0 , 0.9870 ,

2013-01-30 05:14:38 , 940.6 , 1502.3 , 36.0 , 40 , 1320 , 398 , 24 , 7 , 0 , 48.2 , 1.0750 ,

2013-01-30 05:14:39 , 940.6 , 1502.3 , 36.0 , 40 , 1320 , 398 , 24 , 7 , 0 , 47.8 , 1.0750 ,

2013-01-30 05:14:40 , 940.6 , 1502.3 , 36.0 , 40 , 1350 , 398 , 27 , 7 , 0 , 46.7 , 1.0750 ,

2013-01-30 05:14:41 , 940.6 , 1502.3 , 36.0 , 40 , 1320 , 398 , 24 , 7 , 0 , 46.1 , 1.0750 ,

2013-01-30 05:14:42 , 940.6 , 1502.3 , 37.0 , 40 , 1320 , 415 , 26 , 7 , 0 , 46.4 , 1.0750 ,

2013-01-30 05:14:43 , 757.7 , 1502.3 , 36.0 , 40 , 1320 , 415 , 31 , 7 , 0 , 41.9 , 0.9870 ,

2013-01-30 05:14:44 , 757.7 , 1502.3 , 36.0 , 40 , 1320 , 421 , 31 , 7 , 0 , 44.2 , 0.9870 ,

2013-01-30 05:14:45 , 757.7 , 405.0 , 36.0 , 40 , 1320 , 421 , 31 , 29 , 0 , 40.4 , 0.9870 ,

2013-01-30 05:14:46 , 757.7 , 405.0 , 35.0 , 40 , 1320 , 422 , 37 , 25 , 0 , 31.3 , 0.9870 ,

2013-01-30 05:14:47 , 757.7 , 405.0 , 35.0 , 40 , 1350 , 423 , 39 , 26 , 0 , 31.5 , 0.9870 ,

2013-01-30 05:14:48 , 757.7 , 405.0 , 35.0 , 40 , 1320 , 443 , 39 , 27 , 0 , 32.4 , 0.9870 ,

2013-01-30 05:14:49 , 757.7 , 405.0 , 35.0 , 40 , 1350 , 469 , 41 , 28 , 0 , 31.4 , 0.9870 ,

2013-01-30 05:14:50 , 940.6 , 1502.3 , 36.0 , 40 , 1320 , 499 , 28 , 7 , 0 , 47.8 , 1.0750 ,

2013-01-30 05:14:51 , 940.6 , 1502.3 , 37.0 , 40 , 1320 , 499 , 28 , 7 , 0 , 48.2 , 1.0750 ,

2013-01-30 05:14:52 , 940.6 , 1502.3 , 37.0 , 40 , 1320 , 499 , 29 , 7 , 0 , 47.7 , 1.0750 ,

2013-01-30 05:14:53 , 940.6 , 1502.3 , 37.0 , 40 , 1320 , 499 , 30 , 10 , 0 , 49.2 , 1.0750 ,

2013-01-30 05:14:54 , 757.7 , 1502.3 , 37.0 , 40 , 1320 , 499 , 37 , 10 , 0 , 45.0 , 0.9870 ,

2013-01-30 05:14:55 , 757.7 , 1502.3 , 37.0 , 40 , 1320 , 505 , 24 , 7 , 0 , 35.7 , 0.9870 ,

2013-01-30 05:14:56 , 757.7 , 1502.3 , 37.0 , 40 , 1320 , 502 , 52 , 17 , 0 , 50.0 , 0.9870 ,

2013-01-30 05:14:57 , 757.7 , 1502.3 , 38.0 , 40 , 1290 , 502 , 53 , 17 , 0 , 50.0 , 0.9870 ,

2013-01-30 05:14:58 , 966.8 , 1502.3 , 39.0 , 40 , 1350 , 502 , 56 , 21 , 0 , 61.2 , 1.1120 ,

2013-01-30 05:14:59 , 966.8 , 1502.3 , 39.0 , 40 , 1290 , 504 , 50 , 19 , 0 , 59.7 , 1.1120 ,

2013-01-30 05:15:00 , 966.8 , 1502.3 , 40.0 , 40 , 1320 , 504 , 51 , 19 , 0 , 59.7 , 1.1120 ,

2013-01-30 05:15:01 , 966.8 , 1502.3 , 40.0 , 40 , 1320 , 504 , 50 , 19 , 0 , 59.9 , 1.1120 ,

2013-01-30 05:15:02 , 966.8 , 1502.3 , 40.0 , 40 , 1350 , 504 , 51 , 19 , 0 , 59.4 , 1.1120 ,

2013-01-30 05:15:03 , 966.8 , 1502.3 , 40.0 , 40 , 1320 , 504 , 51 , 19 , 0 , 59.9 , 1.1120 ,

2013-01-30 05:15:04 , 966.8 , 1502.3 , 40.0 , 40 , 1320 , 507 , 51 , 19 , 0 , 60.2 , 1.1120 ,

2013-01-30 05:15:05 , 966.8 , 1502.3 , 40.0 , 40 , 1320 , 504 , 50 , 18 , 0 , 58.6 , 1.1120 ,

2013-01-30 05:15:06 , 966.8 , 1502.3 , 40.0 , 40 , 1320 , 504 , 50 , 18 , 0 , 60.0 , 1.1120 ,

2013-01-30 05:15:07 , 966.8 , 1502.3 , 40.0 , 40 , 1320 , 504 , 50 , 18 , 0 , 59.1 , 1.1120 ,

2013-01-30 05:15:08 , 966.8 , 1502.3 , 40.0 , 40 , 1320 , 503 , 34 , 9 , 0 , 50.3 , 1.1120 ,

2013-01-30 05:15:09 , 966.8 , 1502.3 , 40.0 , 40 , 1320 , 500 , 26 , 8 , 0 , 51.0 , 1.1120 ,

2013-01-30 05:15:10 , 966.8 , 1502.3 , 39.0 , 40 , 1320 , 501 , 21 , 6 , 0 , 49.0 , 1.1120 ,

2013-01-30 05:15:11 , 966.8 , 1502.3 , 39.0 , 40 , 1290 , 509 , 26 , 8 , 0 , 50.0 , 1.1120 ,

2013-01-30 05:15:12 , 966.8 , 1502.3 , 39.0 , 40 , 1290 , 533 , 29 , 7 , 0 , 47.9 , 1.1120 ,

2013-01-30 05:15:13 , 966.8 , 1502.3 , 39.0 , 40 , 1320 , 551 , 25 , 7 , 0 , 45.1 , 1.1120 ,

2013-01-30 05:15:14 , 966.8 , 1502.3 , 39.0 , 40 , 1320 , 569 , 27 , 8 , 0 , 46.0 , 1.1120 ,

2013-01-30 05:15:15 , 966.8 , 1502.3 , 39.0 , 40 , 1320 , 595 , 27 , 8 , 0 , 49.6 , 1.1120 ,

2013-01-30 05:15:16 , 966.8 , 1502.3 , 39.0 , 40 , 1350 , 618 , 24 , 7 , 0 , 48.4 , 1.1120 ,

2013-01-30 05:15:17 , 966.8 , 1502.3 , 40.0 , 40 , 1320 , 650 , 25 , 6 , 0 , 51.5 , 1.1120 ,

2013-01-30 05:15:18 , 966.8 , 1502.3 , 40.0 , 40 , 1350 , 654 , 23 , 7 , 0 , 46.0 , 1.1120 ,

2013-01-30 05:15:19 , 966.8 , 1502.3 , 40.0 , 40 , 1350 , 660 , 26 , 8 , 0 , 48.5 , 1.1120 ,

2013-01-30 05:15:20 , 966.8 , 1502.3 , 40.0 , 40 , 1320 , 682 , 32 , 9 , 0 , 48.4 , 1.1120 ,

2013-01-30 05:15:21 , 966.8 , 1502.3 , 40.0 , 40 , 1320 , 685 , 25 , 8 , 0 , 48.7 , 1.1120 ,

2013-01-30 05:15:22 , 966.8 , 1502.3 , 40.0 , 40 , 1350 , 692 , 24 , 7 , 0 , 48.4 , 1.1120 ,

2013-01-30 05:15:23 , 966.8 , 1502.3 , 40.0 , 40 , 1320 , 842 , 23 , 7 , 0 , 46.0 , 1.1120 ,

2013-01-30 05:15:24 , 1045.2 , 1502.3 , 42.0 , 40 , 1350 , 904 , 65 , 26 , 0 , 67.3 , 1.1750 ,

2013-01-30 05:15:25 , 1045.2 , 1502.3 , 42.0 , 40 , 1350 , 952 , 61 , 25 , 0 , 71.1 , 1.1750 ,

2013-01-30 05:15:26 , 1045.2 , 1502.3 , 42.0 , 40 , 1320 , 1044 , 46 , 15 , 0 , 60.5 , 1.1750 ,

2013-01-30 05:15:27 , 1045.2 , 1502.3 , 44.0 , 40 , 1350 , 1052 , 46 , 19 , 0 , 73.9 , 1.1750 ,

2013-01-30 05:15:28 , 1045.2 , 1502.3 , 44.0 , 40 , 1320 , 1035 , 55 , 21 , 0 , 71.5 , 1.1750 ,

2013-01-30 05:15:29 , 1045.2 , 1502.3 , 43.0 , 40 , 1320 , 1029 , 56 , 22 , 0 , 72.9 , 1.1750 ,

2013-01-30 05:15:30 , 1045.2 , 1502.3 , 43.0 , 40 , 1350 , 1015 , 50 , 22 , 0 , 63.8 , 1.1750 ,

2013-01-30 05:15:31 , 1045.2 , 1502.3 , 44.0 , 40 , 1350 , 1012 , 50 , 22 , 0 , 71.6 , 1.1750 ,

2013-01-30 05:15:32 , 1045.2 , 1502.3 , 44.0 , 40 , 1320 , 1006 , 49 , 22 , 0 , 69.7 , 1.1750 ,

2013-01-30 05:15:33 , 1045.2 , 1502.3 , 44.0 , 40 , 1350 , 1004 , 50 , 22 , 0 , 65.7 , 1.1750 ,

2013-01-30 05:15:34 , 1045.2 , 1502.3 , 44.0 , 40 , 1320 , 1003 , 50 , 22 , 0 , 69.8 , 1.1750 ,

2013-01-30 05:15:35 , 1045.2 , 1502.3 , 44.0 , 40 , 1350 , 1004 , 49 , 21 , 0 , 73.5 , 1.1750 ,

2013-01-30 05:15:36 , 1045.2 , 1502.3 , 44.0 , 40 , 1350 , 1002 , 49 , 22 , 0 , 68.0 , 1.1750 ,

2013-01-30 05:15:37 , 1045.2 , 1502.3 , 44.0 , 40 , 1350 , 1001 , 50 , 22 , 0 , 70.3 , 1.1750 ,

2013-01-30 05:15:38 , 1045.2 , 1502.3 , 45.0 , 40 , 1320 , 997 , 50 , 21 , 0 , 72.0 , 1.1750 ,

2013-01-30 05:15:39 , 1045.2 , 1502.3 , 44.0 , 40 , 1320 , 997 , 49 , 22 , 0 , 69.8 , 1.1750 ,

2013-01-30 05:15:40 , 1045.2 , 1502.3 , 45.0 , 40 , 1320 , 994 , 49 , 21 , 0 , 69.1 , 1.1750 ,

2013-01-30 05:15:41 , 979.8 , 1502.3 , 44.0 , 40 , 1320 , 992 , 51 , 21 , 0 , 59.9 , 1.1120 ,

2013-01-30 05:15:42 , 979.8 , 1502.3 , 44.0 , 40 , 1350 , 989 , 51 , 21 , 0 , 61.9 , 1.1120 ,

2013-01-30 05:15:43 , 979.8 , 1502.3 , 44.0 , 40 , 1320 , 987 , 51 , 22 , 0 , 67.7 , 1.1120 ,

2013-01-30 05:15:44 , 979.8 , 1502.3 , 44.0 , 40 , 1350 , 986 , 51 , 21 , 0 , 62.4 , 1.1120 ,

2013-01-30 05:15:45 , 979.8 , 1502.3 , 45.0 , 40 , 1320 , 986 , 52 , 22 , 0 , 62.8 , 1.1120 ,

2013-01-30 05:15:46 , 979.8 , 1502.3 , 44.0 , 40 , 1320 , 986 , 52 , 22 , 0 , 67.3 , 1.1120 ,

2013-01-30 05:15:47 , 979.8 , 1502.3 , 45.0 , 40 , 1320 , 986 , 51 , 21 , 0 , 67.8 , 1.1120 ,

2013-01-30 05:15:48 , 979.8 , 1502.3 , 45.0 , 40 , 1350 , 986 , 51 , 21 , 0 , 60.8 , 1.1120 ,

2013-01-30 05:15:49 , 979.8 , 1502.3 , 45.0 , 40 , 1320 , 986 , 51 , 21 , 0 , 63.6 , 1.1120 ,

2013-01-30 05:15:50 , 979.8 , 1502.3 , 45.0 , 40 , 1350 , 986 , 51 , 22 , 0 , 62.7 , 1.1120 ,

2013-01-30 05:15:51 , 979.8 , 1502.3 , 44.0 , 40 , 1320 , 986 , 51 , 21 , 0 , 60.1 , 1.1120 ,

2013-01-30 05:15:52 , 940.6 , 1502.3 , 45.0 , 40 , 1350 , 986 , 53 , 22 , 0 , 61.1 , 1.0750 ,

2013-01-30 05:15:53 , 940.6 , 1502.3 , 44.0 , 40 , 1320 , 986 , 53 , 22 , 0 , 61.7 , 1.0750 ,

2013-01-30 05:15:54 , 940.6 , 1502.3 , 45.0 , 40 , 1320 , 986 , 53 , 21 , 0 , 61.0 , 1.0750 ,

2013-01-30 05:15:55 , 940.6 , 1502.3 , 45.0 , 40 , 1320 , 986 , 53 , 22 , 0 , 61.2 , 1.0750 ,

2013-01-30 05:15:56 , 940.6 , 1502.3 , 45.0 , 40 , 1350 , 986 , 53 , 21 , 0 , 61.1 , 1.0750 ,

2013-01-30 05:15:57 , 940.6 , 1502.3 , 45.0 , 40 , 1320 , 986 , 53 , 21 , 0 , 58.7 , 1.0750 ,

2013-01-30 05:15:58 , 940.6 , 1502.3 , 45.0 , 40 , 1350 , 986 , 53 , 21 , 0 , 62.2 , 1.0750 ,

2013-01-30 05:15:59 , 940.6 , 1502.3 , 45.0 , 40 , 1350 , 986 , 52 , 21 , 0 , 59.4 , 1.0750 ,

2013-01-30 05:16:00 , 940.6 , 1502.3 , 45.0 , 40 , 1350 , 986 , 53 , 21 , 0 , 60.1 , 1.0750 ,

2013-01-30 05:16:01 , 940.6 , 1502.3 , 45.0 , 40 , 1350 , 986 , 53 , 21 , 0 , 62.6 , 1.0750 ,

2013-01-30 05:16:02 , 940.6 , 1502.3 , 45.0 , 40 , 1350 , 986 , 53 , 21 , 0 , 59.4 , 1.0750 ,

2013-01-30 05:16:03 , 940.6 , 1502.3 , 45.0 , 40 , 1350 , 986 , 52 , 21 , 0 , 60.5 , 1.0750 ,

2013-01-30 05:16:04 , 940.6 , 1502.3 , 45.0 , 40 , 1350 , 986 , 53 , 21 , 0 , 63.0 , 1.0750 ,

2013-01-30 05:16:05 , 940.6 , 1502.3 , 45.0 , 40 , 1350 , 986 , 54 , 22 , 0 , 60.0 , 1.0750 ,

2013-01-30 05:16:06 , 940.6 , 1502.3 , 45.0 , 40 , 1320 , 986 , 53 , 22 , 0 , 60.9 , 1.0750 ,

2013-01-30 05:16:07 , 940.6 , 1502.3 , 45.0 , 40 , 1350 , 986 , 52 , 21 , 0 , 62.7 , 1.0750 ,

2013-01-30 05:16:08 , 940.6 , 1502.3 , 45.0 , 40 , 1320 , 986 , 52 , 22 , 0 , 61.1 , 1.0750 ,

2013-01-30 05:16:09 , 940.6 , 1502.3 , 46.0 , 40 , 1350 , 986 , 53 , 22 , 0 , 64.2 , 1.0750 ,

2013-01-30 05:16:10 , 940.6 , 1502.3 , 45.0 , 40 , 1320 , 986 , 52 , 21 , 0 , 61.5 , 1.0750 ,

2013-01-30 05:16:11 , 940.6 , 1502.3 , 45.0 , 40 , 1320 , 986 , 53 , 22 , 0 , 57.2 , 1.0750 ,

2013-01-30 05:16:12 , 940.6 , 1502.3 , 45.0 , 40 , 1350 , 986 , 53 , 22 , 0 , 61.3 , 1.0750 ,

2013-01-30 05:16:13 , 940.6 , 1502.3 , 45.0 , 40 , 1320 , 986 , 53 , 21 , 0 , 64.3 , 1.0750 ,

2013-01-30 05:16:14 , 940.6 , 1502.3 , 46.0 , 40 , 1350 , 986 , 53 , 22 , 0 , 58.4 , 1.0750 ,

2013-01-30 05:16:15 , 940.6 , 1502.3 , 45.0 , 40 , 1320 , 986 , 52 , 21 , 0 , 61.4 , 1.0750 ,

2013-01-30 05:16:16 , 940.6 , 1502.3 , 46.0 , 40 , 1350 , 986 , 53 , 22 , 0 , 64.4 , 1.0750 ,

2013-01-30 05:16:17 , 940.6 , 1502.3 , 45.0 , 40 , 1350 , 986 , 53 , 22 , 0 , 62.2 , 1.0750 ,

2013-01-30 05:16:18 , 940.6 , 1502.3 , 46.0 , 40 , 1320 , 986 , 53 , 22 , 0 , 60.6 , 1.0750 ,

2013-01-30 05:16:19 , 940.6 , 1502.3 , 46.0 , 40 , 1350 , 986 , 52 , 21 , 0 , 60.7 , 1.0750 ,

2013-01-30 05:16:20 , 940.6 , 1502.3 , 45.0 , 40 , 1350 , 986 , 53 , 21 , 0 , 59.7 , 1.0750 ,

2013-01-30 05:16:21 , 940.6 , 1502.3 , 46.0 , 40 , 1350 , 986 , 53 , 21 , 0 , 61.7 , 1.0750 ,

2013-01-30 05:16:22 , 940.6 , 1502.3 , 45.0 , 40 , 1320 , 986 , 53 , 22 , 0 , 62.6 , 1.0750 ,

2013-01-30 05:16:23 , 940.6 , 1502.3 , 46.0 , 40 , 1320 , 986 , 53 , 22 , 0 , 61.7 , 1.0750 ,

2013-01-30 05:16:24 , 940.6 , 1502.3 , 46.0 , 40 , 1350 , 986 , 53 , 22 , 0 , 59.7 , 1.0750 ,

2013-01-30 05:16:25 , 940.6 , 1502.3 , 46.0 , 40 , 1320 , 986 , 53 , 22 , 0 , 64.2 , 1.0750 ,

2013-01-30 05:16:26 , 940.6 , 1502.3 , 46.0 , 40 , 1320 , 986 , 53 , 22 , 0 , 61.9 , 1.0750 ,

2013-01-30 05:16:27 , 940.6 , 1502.3 , 46.0 , 41 , 1350 , 986 , 53 , 21 , 0 , 61.2 , 1.0750 ,

2013-01-30 05:16:28 , 940.6 , 1502.3 , 46.0 , 40 , 1350 , 986 , 53 , 21 , 0 , 62.7 , 1.0750 ,

2013-01-30 05:16:29 , 940.6 , 1502.3 , 46.0 , 40 , 1350 , 986 , 53 , 22 , 0 , 59.5 , 1.0750 ,

2013-01-30 05:16:30 , 940.6 , 1502.3 , 46.0 , 40 , 1350 , 986 , 53 , 22 , 0 , 64.8 , 1.0750 ,

2013-01-30 05:16:31 , 940.6 , 1502.3 , 46.0 , 40 , 1320 , 986 , 53 , 22 , 0 , 59.2 , 1.0750 ,

2013-01-30 05:16:32 , 940.6 , 1502.3 , 46.0 , 41 , 1350 , 986 , 53 , 22 , 0 , 59.0 , 1.0750 ,

2013-01-30 05:16:33 , 940.6 , 1502.3 , 46.0 , 40 , 1350 , 986 , 58 , 22 , 0 , 67.1 , 1.0750 ,

2013-01-30 05:16:34 , 940.6 , 1502.3 , 46.0 , 41 , 1350 , 986 , 53 , 22 , 0 , 59.6 , 1.0750 ,

2013-01-30 05:16:35 , 940.6 , 1502.3 , 46.0 , 40 , 1350 , 986 , 53 , 21 , 0 , 57.9 , 1.0750 ,

2013-01-30 05:16:36 , 940.6 , 1502.3 , 46.0 , 40 , 1350 , 986 , 53 , 22 , 0 , 62.8 , 1.0750 ,

2013-01-30 05:16:37 , 940.6 , 1502.3 , 46.0 , 41 , 1350 , 986 , 53 , 22 , 0 , 60.6 , 1.0750 ,

2013-01-30 05:16:38 , 940.6 , 1502.3 , 46.0 , 40 , 1350 , 986 , 53 , 22 , 0 , 61.2 , 1.0750 ,

2013-01-30 05:16:39 , 940.6 , 1502.3 , 46.0 , 41 , 1350 , 986 , 53 , 21 , 0 , 64.6 , 1.0750 ,

2013-01-30 05:16:40 , 940.6 , 1502.3 , 46.0 , 41 , 1350 , 986 , 53 , 21 , 0 , 60.4 , 1.0750 ,

2013-01-30 05:16:41 , 940.6 , 1502.3 , 46.0 , 41 , 1350 , 986 , 53 , 21 , 0 , 57.4 , 1.0750 ,

2013-01-30 05:16:42 , 940.6 , 1502.3 , 46.0 , 41 , 1350 , 986 , 54 , 22 , 0 , 61.4 , 1.0750 ,

2013-01-30 05:16:43 , 940.6 , 1502.3 , 46.0 , 40 , 1320 , 986 , 53 , 22 , 0 , 61.5 , 1.0750 ,

2013-01-30 05:16:44 , 940.6 , 1502.3 , 46.0 , 41 , 1350 , 986 , 53 , 22 , 0 , 61.4 , 1.0750 ,

2013-01-30 05:16:45 , 940.6 , 1502.3 , 47.0 , 40 , 1350 , 986 , 53 , 22 , 0 , 60.9 , 1.0750 ,

2013-01-30 05:16:46 , 940.6 , 1502.3 , 46.0 , 41 , 1350 , 986 , 53 , 21 , 0 , 60.1 , 1.0750 ,

2013-01-30 05:16:47 , 940.6 , 1502.3 , 46.0 , 41 , 1350 , 986 , 52 , 21 , 0 , 62.2 , 1.0750 ,

2013-01-30 05:16:48 , 940.6 , 1502.3 , 46.0 , 40 , 1320 , 986 , 53 , 21 , 0 , 61.5 , 1.0750 ,

2013-01-30 05:16:49 , 940.6 , 1502.3 , 46.0 , 41 , 1350 , 986 , 53 , 22 , 0 , 59.8 , 1.0750 ,

2013-01-30 05:16:50 , 940.6 , 1502.3 , 47.0 , 40 , 1380 , 986 , 53 , 21 , 0 , 61.7 , 1.0750 ,

2013-01-30 05:16:51 , 940.6 , 1502.3 , 46.0 , 41 , 1350 , 986 , 53 , 21 , 0 , 62.8 , 1.0750 ,

2013-01-30 05:16:52 , 940.6 , 1502.3 , 47.0 , 41 , 1350 , 986 , 53 , 21 , 0 , 60.4 , 1.0750 ,

2013-01-30 05:16:53 , 940.6 , 1502.3 , 46.0 , 41 , 1350 , 986 , 53 , 21 , 0 , 61.2 , 1.0750 ,

2013-01-30 05:16:54 , 940.6 , 1502.3 , 47.0 , 41 , 1350 , 986 , 53 , 21 , 0 , 63.1 , 1.0750 ,

2013-01-30 05:16:55 , 940.6 , 1502.3 , 46.0 , 41 , 1350 , 986 , 53 , 21 , 0 , 57.1 , 1.0750 ,

2013-01-30 05:16:56 , 940.6 , 1502.3 , 46.0 , 41 , 1380 , 986 , 53 , 21 , 0 , 63.4 , 1.0750 ,

2013-01-30 05:16:57 , 940.6 , 1502.3 , 47.0 , 41 , 1350 , 986 , 53 , 21 , 0 , 60.8 , 1.0750 ,

2013-01-30 05:16:58 , 940.6 , 1502.3 , 46.0 , 41 , 1380 , 986 , 54 , 21 , 0 , 59.5 , 1.0750 ,

2013-01-30 05:16:59 , 940.6 , 1502.3 , 47.0 , 41 , 1350 , 986 , 53 , 22 , 0 , 63.4 , 1.0750 ,

2013-01-30 05:17:00 , 940.6 , 1502.3 , 47.0 , 41 , 1350 , 986 , 53 , 21 , 0 , 61.2 , 1.0750 ,

2013-01-30 05:17:01 , 940.6 , 1502.3 , 46.0 , 41 , 1350 , 986 , 53 , 21 , 0 , 58.8 , 1.0750 ,

2013-01-30 05:17:02 , 940.6 , 1502.3 , 47.0 , 41 , 1350 , 986 , 53 , 22 , 0 , 62.2 , 1.0750 ,

2013-01-30 05:17:03 , 940.6 , 1502.3 , 46.0 , 41 , 1380 , 986 , 53 , 21 , 0 , 61.4 , 1.0750 ,

2013-01-30 05:17:04 , 940.6 , 1502.3 , 47.0 , 41 , 1350 , 986 , 53 , 22 , 0 , 60.5 , 1.0750 ,

2013-01-30 05:17:05 , 940.6 , 1502.3 , 46.0 , 41 , 1380 , 986 , 53 , 22 , 0 , 60.0 , 1.0750 ,

2013-01-30 05:17:06 , 940.6 , 1502.3 , 47.0 , 41 , 1350 , 986 , 53 , 22 , 0 , 59.4 , 1.0750 ,

2013-01-30 05:17:07 , 940.6 , 1502.3 , 47.0 , 41 , 1380 , 986 , 53 , 22 , 0 , 57.1 , 1.0750 ,

2013-01-30 05:17:08 , 940.6 , 1502.3 , 47.0 , 41 , 1350 , 986 , 53 , 21 , 0 , 62.4 , 1.0750 ,

2013-01-30 05:17:09 , 940.6 , 1502.3 , 47.0 , 41 , 1350 , 986 , 53 , 21 , 0 , 59.8 , 1.0750 ,

2013-01-30 05:17:10 , 940.6 , 1502.3 , 46.0 , 41 , 1380 , 986 , 53 , 21 , 0 , 59.8 , 1.0750 ,

2013-01-30 05:17:11 , 940.6 , 1502.3 , 47.0 , 41 , 1350 , 986 , 52 , 21 , 0 , 64.8 , 1.0750 ,

2013-01-30 05:17:12 , 940.6 , 1502.3 , 47.0 , 41 , 1350 , 986 , 53 , 21 , 0 , 56.9 , 1.0750 ,

2013-01-30 05:17:13 , 940.6 , 1502.3 , 47.0 , 41 , 1350 , 986 , 53 , 21 , 0 , 61.8 , 1.0750 ,

2013-01-30 05:17:14 , 940.6 , 1502.3 , 47.0 , 41 , 1350 , 986 , 53 , 21 , 0 , 62.3 , 1.0750 ,

2013-01-30 05:17:15 , 940.6 , 1502.3 , 47.0 , 41 , 1380 , 986 , 53 , 21 , 0 , 59.4 , 1.0750 ,

2013-01-30 05:17:16 , 940.6 , 1502.3 , 47.0 , 41 , 1350 , 986 , 53 , 21 , 0 , 61.1 , 1.0750 ,

2013-01-30 05:17:17 , 940.6 , 1502.3 , 47.0 , 41 , 1380 , 986 , 53 , 22 , 0 , 61.8 , 1.0750 ,

2013-01-30 05:17:18 , 940.6 , 1502.3 , 47.0 , 41 , 1350 , 986 , 53 , 22 , 0 , 61.3 , 1.0750 ,

2013-01-30 05:17:19 , 940.6 , 1502.3 , 47.0 , 41 , 1350 , 986 , 52 , 21 , 0 , 59.8 , 1.0750 ,

2013-01-30 05:17:20 , 940.6 , 1502.3 , 47.0 , 41 , 1380 , 986 , 53 , 22 , 0 , 62.4 , 1.0750 ,

2013-01-30 05:17:21 , 940.6 , 1502.3 , 47.0 , 41 , 1350 , 986 , 53 , 22 , 0 , 59.9 , 1.0750 ,

2013-01-30 05:17:22 , 940.6 , 1502.3 , 47.0 , 41 , 1350 , 986 , 53 , 22 , 0 , 59.8 , 1.0750 ,

2013-01-30 05:17:23 , 940.6 , 1502.3 , 47.0 , 41 , 1350 , 986 , 53 , 22 , 0 , 64.6 , 1.0750 ,

2013-01-30 05:17:24 , 940.6 , 1502.3 , 47.0 , 41 , 1350 , 986 , 54 , 22 , 0 , 60.0 , 1.0750 ,

2013-01-30 05:17:25 , 940.6 , 1502.3 , 47.0 , 41 , 1320 , 986 , 53 , 22 , 0 , 64.1 , 1.0750 ,

2013-01-30 05:17:26 , 940.6 , 1502.3 , 47.0 , 41 , 1350 , 986 , 53 , 21 , 0 , 58.7 , 1.0750 ,

2013-01-30 05:17:27 , 940.6 , 1502.3 , 47.0 , 41 , 1350 , 986 , 53 , 22 , 0 , 57.8 , 1.0750 ,

2013-01-30 05:17:28 , 940.6 , 1502.3 , 47.0 , 41 , 1350 , 986 , 53 , 22 , 0 , 62.0 , 1.0750 ,

2013-01-30 05:17:29 , 940.6 , 1502.3 , 47.0 , 41 , 1380 , 986 , 53 , 22 , 0 , 64.4 , 1.0750 ,

2013-01-30 05:17:30 , 940.6 , 1502.3 , 47.0 , 41 , 1350 , 986 , 53 , 22 , 0 , 60.8 , 1.0750 ,

2013-01-30 05:17:31 , 940.6 , 1502.3 , 47.0 , 41 , 1350 , 986 , 52 , 21 , 0 , 61.1 , 1.0750 ,

2013-01-30 05:17:32 , 940.6 , 1502.3 , 47.0 , 41 , 1350 , 986 , 53 , 22 , 0 , 61.6 , 1.0750 ,

2013-01-30 05:17:33 , 940.6 , 1502.3 , 47.0 , 41 , 1320 , 986 , 53 , 22 , 0 , 61.6 , 1.0750 ,

2013-01-30 05:17:34 , 940.6 , 1502.3 , 47.0 , 41 , 1350 , 986 , 53 , 22 , 0 , 63.1 , 1.0750 ,

2013-01-30 05:17:35 , 940.6 , 1502.3 , 47.0 , 41 , 1320 , 986 , 52 , 21 , 0 , 60.0 , 1.0750 ,

2013-01-30 05:17:36 , 940.6 , 1502.3 , 47.0 , 41 , 1350 , 986 , 53 , 21 , 0 , 60.4 , 1.0750 ,

2013-01-30 05:17:37 , 940.6 , 1502.3 , 47.0 , 41 , 1350 , 986 , 53 , 21 , 0 , 60.9 , 1.0750 ,

2013-01-30 05:17:38 , 940.6 , 1502.3 , 47.0 , 41 , 1350 , 986 , 53 , 21 , 0 , 61.6 , 1.0750 ,

2013-01-30 05:17:39 , 940.6 , 1502.3 , 47.0 , 41 , 1320 , 986 , 53 , 21 , 0 , 59.1 , 1.0750 ,

2013-01-30 05:17:40 , 940.6 , 1502.3 , 47.0 , 41 , 1350 , 986 , 53 , 21 , 0 , 60.7 , 1.0750 ,

2013-01-30 05:17:41 , 940.6 , 1502.3 , 47.0 , 41 , 1320 , 986 , 53 , 21 , 0 , 61.4 , 1.0750 ,

2013-01-30 05:17:42 , 940.6 , 1502.3 , 47.0 , 41 , 1350 , 986 , 53 , 21 , 0 , 59.2 , 1.0750 ,

2013-01-30 05:17:43 , 940.6 , 1502.3 , 48.0 , 41 , 1350 , 986 , 53 , 21 , 0 , 62.7 , 1.0750 ,

2013-01-30 05:17:44 , 940.6 , 1502.3 , 47.0 , 41 , 1350 , 986 , 53 , 22 , 0 , 62.7 , 1.0750 ,

2013-01-30 05:17:45 , 940.6 , 1502.3 , 48.0 , 41 , 1350 , 986 , 53 , 22 , 0 , 63.6 , 1.0750 ,

2013-01-30 05:17:46 , 940.6 , 1502.3 , 47.0 , 41 , 1350 , 986 , 53 , 22 , 0 , 61.5 , 1.0750 ,

2013-01-30 05:17:47 , 940.6 , 1502.3 , 47.0 , 41 , 1320 , 986 , 53 , 22 , 0 , 61.7 , 1.0750 ,

2013-01-30 05:17:48 , 940.6 , 1502.3 , 47.0 , 41 , 1350 , 986 , 53 , 22 , 0 , 61.1 , 1.0750 ,

2013-01-30 05:17:49 , 940.6 , 1502.3 , 47.0 , 41 , 1350 , 986 , 53 , 21 , 0 , 64.5 , 1.0750 ,

2013-01-30 05:17:50 , 940.6 , 1502.3 , 47.0 , 41 , 1350 , 986 , 53 , 22 , 0 , 61.5 , 1.0750 ,

2013-01-30 05:17:51 , 940.6 , 1502.3 , 47.0 , 41 , 1350 , 986 , 52 , 21 , 0 , 56.6 , 1.0750 ,

2013-01-30 05:17:52 , 940.6 , 1502.3 , 47.0 , 41 , 1350 , 986 , 53 , 21 , 0 , 60.6 , 1.0750 ,

2013-01-30 05:17:53 , 940.6 , 1502.3 , 47.0 , 41 , 1350 , 986 , 56 , 22 , 0 , 63.4 , 1.0750 ,

2013-01-30 05:17:54 , 940.6 , 1502.3 , 47.0 , 41 , 1350 , 986 , 53 , 21 , 0 , 61.8 , 1.0750 ,

2013-01-30 05:17:55 , 940.6 , 1502.3 , 48.0 , 41 , 1350 , 990 , 57 , 21 , 0 , 63.8 , 1.0750 ,

2013-01-30 05:17:56 , 966.8 , 1502.3 , 48.0 , 41 , 1350 , 990 , 61 , 23 , 0 , 65.7 , 1.1000 ,

2013-01-30 05:17:57 , 1058.2 , 1502.3 , 49.0 , 42 , 1350 , 988 , 56 , 24 , 0 , 78.1 , 1.1750 ,

2013-01-30 05:17:58 , 1058.2 , 1502.3 , 49.0 , 43 , 1350 , 986 , 58 , 22 , 0 , 71.6 , 1.1750 ,

2013-01-30 05:17:59 , 1058.2 , 1502.3 , 49.0 , 42 , 1380 , 988 , 55 , 22 , 0 , 71.4 , 1.1750 ,

2013-01-30 05:18:00 , 1058.2 , 1502.3 , 49.0 , 42 , 1380 , 988 , 56 , 22 , 0 , 69.8 , 1.1750 ,

2013-01-30 05:18:01 , 1058.2 , 1502.3 , 49.0 , 42 , 1380 , 984 , 59 , 24 , 0 , 73.0 , 1.1750 ,

2013-01-30 05:18:02 , 1058.2 , 1502.3 , 49.0 , 42 , 1380 , 989 , 59 , 24 , 0 , 74.9 , 1.1750 ,

2013-01-30 05:18:03 , 1058.2 , 1502.3 , 49.0 , 43 , 1380 , 986 , 61 , 25 , 0 , 78.7 , 1.1750 ,

2013-01-30 05:18:04 , 1058.2 , 1502.3 , 50.0 , 42 , 1410 , 986 , 61 , 24 , 0 , 77.3 , 1.1750 ,

2013-01-30 05:18:05 , 1058.2 , 1502.3 , 49.0 , 43 , 1380 , 986 , 58 , 23 , 0 , 72.0 , 1.1750 ,

2013-01-30 05:18:06 , 1058.2 , 1502.3 , 50.0 , 42 , 1410 , 986 , 58 , 23 , 0 , 75.3 , 1.1750 ,

2013-01-30 05:18:07 , 1058.2 , 1502.3 , 50.0 , 43 , 1380 , 983 , 59 , 23 , 0 , 73.3 , 1.1750 ,

2013-01-30 05:18:08 , 1058.2 , 1502.3 , 49.0 , 43 , 1410 , 986 , 62 , 24 , 0 , 68.9 , 1.1750 ,

2013-01-30 05:18:09 , 1058.2 , 1502.3 , 50.0 , 43 , 1380 , 975 , 64 , 24 , 0 , 78.3 , 1.1750 ,

2013-01-30 05:18:10 , 1058.2 , 1502.3 , 50.0 , 43 , 1410 , 968 , 70 , 29 , 0 , 80.5 , 1.1750 ,

2013-01-30 05:18:11 , 1058.2 , 1502.3 , 51.0 , 43 , 1410 , 976 , 77 , 35 , 0 , 78.1 , 1.1750 ,

2013-01-30 05:18:12 , 1058.2 , 1502.3 , 52.0 , 44 , 1380 , 970 , 92 , 43 , 0 , 92.6 , 1.1750 ,

2013-01-30 05:18:13 , 1058.2 , 1502.3 , 51.0 , 44 , 1410 , 973 , 82 , 37 , 0 , 69.4 , 1.1750 ,

2013-01-30 05:18:14 , 1058.2 , 1502.3 , 51.0 , 44 , 1410 , 973 , 76 , 33 , 0 , 78.2 , 1.1750 ,

2013-01-30 05:18:15 , 1058.2 , 1502.3 , 52.0 , 44 , 1440 , 977 , 86 , 35 , 0 , 83.8 , 1.1750 ,

2013-01-30 05:18:16 , 1058.2 , 1502.3 , 51.0 , 43 , 1440 , 973 , 69 , 28 , 0 , 75.1 , 1.1750 ,

2013-01-30 05:18:17 , 1058.2 , 1502.3 , 51.0 , 44 , 1410 , 977 , 81 , 32 , 0 , 87.7 , 1.1750 ,

2013-01-30 05:18:18 , 1058.2 , 1502.3 , 51.0 , 43 , 1410 , 974 , 81 , 36 , 0 , 74.6 , 1.1750 ,

2013-01-30 05:18:19 , 1058.2 , 1502.3 , 51.0 , 43 , 1410 , 970 , 80 , 36 , 0 , 71.2 , 1.1750 ,

2013-01-30 05:18:20 , 1058.2 , 1502.3 , 51.0 , 43 , 1410 , 977 , 87 , 43 , 0 , 77.4 , 1.1750 ,

2013-01-30 05:18:21 , 1058.2 , 1502.3 , 51.0 , 43 , 1380 , 971 , 88 , 44 , 0 , 78.4 , 1.1750 ,

2013-01-30 05:18:22 , 1058.2 , 1502.3 , 51.0 , 43 , 1410 , 971 , 88 , 43 , 0 , 79.0 , 1.1750 ,

2013-01-30 05:18:23 , 1058.2 , 1502.3 , 50.0 , 43 , 1410 , 975 , 91 , 49 , 0 , 77.0 , 1.1750 ,

2013-01-30 05:18:24 , 1058.2 , 1502.3 , 51.0 , 43 , 1410 , 982 , 88 , 43 , 0 , 75.7 , 1.1750 ,

2013-01-30 05:18:25 , 1058.2 , 1502.3 , 50.0 , 43 , 1380 , 973 , 85 , 43 , 0 , 66.5 , 1.1750 ,

2013-01-30 05:18:26 , 1058.2 , 1502.3 , 50.0 , 43 , 1410 , 974 , 83 , 42 , 0 , 70.7 , 1.1750 ,

2013-01-30 05:18:27 , 1058.2 , 1502.3 , 50.0 , 43 , 1410 , 975 , 83 , 46 , 0 , 68.8 , 1.1750 ,

2013-01-30 05:18:28 , 1058.2 , 1502.3 , 51.0 , 43 , 1410 , 986 , 75 , 36 , 0 , 73.6 , 1.1750 ,

2013-01-30 05:18:29 , 1058.2 , 1502.3 , 52.0 , 44 , 1410 , 979 , 94 , 48 , 0 , 90.1 , 1.1750 ,

2013-01-30 05:18:30 , 1058.2 , 1502.3 , 52.0 , 44 , 1410 , 983 , 90 , 43 , 0 , 87.1 , 1.1750 ,

2013-01-30 05:18:31 , 1058.2 , 1502.3 , 51.0 , 44 , 1440 , 991 , 67 , 35 , 0 , 69.6 , 1.1750 ,

2013-01-30 05:18:32 , 1058.2 , 1502.3 , 50.0 , 44 , 1440 , 984 , 75 , 40 , 0 , 77.1 , 1.1750 ,

2013-01-30 05:18:33 , 1058.2 , 1502.3 , 51.0 , 43 , 1440 , 981 , 76 , 39 , 0 , 71.3 , 1.1750 ,

2013-01-30 05:18:34 , 1058.2 , 1502.3 , 51.0 , 44 , 1440 , 977 , 78 , 41 , 0 , 73.2 , 1.1750 ,

2013-01-30 05:18:35 , 1058.2 , 1502.3 , 52.0 , 43 , 1440 , 977 , 81 , 42 , 0 , 77.8 , 1.1750 ,

2013-01-30 05:18:36 , 1058.2 , 1502.3 , 51.0 , 43 , 1410 , 969 , 80 , 41 , 0 , 76.7 , 1.1750 ,

2013-01-30 05:18:37 , 1058.2 , 1502.3 , 51.0 , 43 , 1410 , 970 , 81 , 41 , 0 , 77.5 , 1.1750 ,

2013-01-30 05:18:38 , 1058.2 , 1502.3 , 52.0 , 43 , 1410 , 970 , 88 , 46 , 0 , 76.9 , 1.1750 ,

2013-01-30 05:18:39 , 1058.2 , 1502.3 , 51.0 , 43 , 1440 , 972 , 83 , 45 , 0 , 78.8 , 1.1750 ,

2013-01-30 05:18:40 , 1058.2 , 1502.3 , 52.0 , 43 , 1410 , 971 , 81 , 45 , 0 , 71.6 , 1.1750 ,

2013-01-30 05:18:41 , 1058.2 , 1502.3 , 51.0 , 44 , 1410 , 973 , 84 , 43 , 0 , 67.0 , 1.1750 ,

2013-01-30 05:18:42 , 1058.2 , 1502.3 , 50.0 , 43 , 1410 , 972 , 90 , 45 , 0 , 74.2 , 1.1750 ,

2013-01-30 05:18:43 , 1058.2 , 1502.3 , 51.0 , 44 , 1440 , 972 , 91 , 46 , 0 , 68.3 , 1.1750 ,

2013-01-30 05:18:44 , 1058.2 , 1502.3 , 50.0 , 43 , 1410 , 972 , 85 , 43 , 0 , 68.7 , 1.1750 ,

2013-01-30 05:18:45 , 1058.2 , 1502.3 , 51.0 , 43 , 1410 , 972 , 87 , 45 , 0 , 74.9 , 1.1750 ,

2013-01-30 05:18:46 , 1058.2 , 1502.3 , 50.0 , 43 , 1410 , 972 , 80 , 41 , 0 , 71.4 , 1.1750 ,

2013-01-30 05:18:47 , 1058.2 , 1502.3 , 51.0 , 44 , 1440 , 972 , 88 , 48 , 0 , 74.8 , 1.1750 ,

2013-01-30 05:18:48 , 1058.2 , 1502.3 , 51.0 , 43 , 1410 , 974 , 80 , 42 , 0 , 66.5 , 1.1750 ,

2013-01-30 05:18:49 , 1058.2 , 1502.3 , 50.0 , 43 , 1410 , 973 , 79 , 42 , 0 , 71.0 , 1.1750 ,

2013-01-30 05:18:50 , 1058.2 , 1502.3 , 51.0 , 43 , 1410 , 973 , 81 , 39 , 0 , 80.7 , 1.1750 ,

2013-01-30 05:18:51 , 1058.2 , 1502.3 , 51.0 , 44 , 1410 , 973 , 79 , 42 , 0 , 80.5 , 1.1750 ,

2013-01-30 05:18:52 , 1058.2 , 1502.3 , 51.0 , 44 , 1410 , 973 , 81 , 44 , 0 , 74.8 , 1.1750 ,

2013-01-30 05:18:53 , 1058.2 , 1502.3 , 51.0 , 43 , 1440 , 973 , 86 , 44 , 0 , 72.6 , 1.1750 ,

2013-01-30 05:18:54 , 1058.2 , 1502.3 , 51.0 , 43 , 1410 , 974 , 95 , 51 , 0 , 82.2 , 1.1750 ,

2013-01-30 05:18:55 , 1058.2 , 1502.3 , 51.0 , 44 , 1440 , 974 , 87 , 46 , 0 , 78.3 , 1.1750 ,

2013-01-30 05:18:56 , 1058.2 , 1502.3 , 51.0 , 44 , 1410 , 974 , 76 , 42 , 0 , 78.4 , 1.1750 ,

2013-01-30 05:18:57 , 1058.2 , 1502.3 , 50.0 , 43 , 1440 , 977 , 80 , 43 , 0 , 70.2 , 1.1750 ,

2013-01-30 05:18:58 , 1058.2 , 1502.3 , 51.0 , 44 , 1440 , 976 , 79 , 43 , 0 , 69.9 , 1.1750 ,

2013-01-30 05:18:59 , 1058.2 , 1502.3 , 52.0 , 43 , 1440 , 976 , 79 , 41 , 0 , 78.3 , 1.1750 ,

2013-01-30 05:19:00 , 1058.2 , 1502.3 , 52.0 , 44 , 1410 , 978 , 84 , 45 , 0 , 84.8 , 1.1750 ,

2013-01-30 05:19:01 , 1058.2 , 1502.3 , 51.0 , 44 , 1440 , 979 , 75 , 39 , 0 , 80.9 , 1.1750 ,

2013-01-30 05:19:02 , 1058.2 , 1502.3 , 52.0 , 44 , 1410 , 978 , 72 , 39 , 0 , 75.6 , 1.1750 ,

2013-01-30 05:19:03 , 1058.2 , 1502.3 , 52.0 , 44 , 1410 , 979 , 92 , 51 , 0 , 84.6 , 1.1750 ,

2013-01-30 05:19:04 , 1058.2 , 1502.3 , 53.0 , 44 , 1440 , 979 , 89 , 48 , 0 , 90.7 , 1.1750 ,

2013-01-30 05:19:05 , 1058.2 , 1502.3 , 52.0 , 44 , 1410 , 978 , 82 , 42 , 0 , 90.2 , 1.1750 ,

2013-01-30 05:19:06 , 1058.2 , 1502.3 , 52.0 , 44 , 1440 , 978 , 75 , 39 , 0 , 79.3 , 1.1750 ,

2013-01-30 05:19:07 , 1058.2 , 1502.3 , 51.0 , 44 , 1440 , 837 , 0 , 0 , 0 , 68.7 , 1.1750 ,

2013-01-30 05:19:08 , 1058.2 , 1502.3 , 50.0 , 44 , 1470 , 847 , 44 , 20 , 0 , 55.9 , 1.1750 ,

2013-01-30 05:19:09 , 1058.2 , 1502.3 , 50.0 , 43 , 1410 , 847 , 34 , 15 , 0 , 61.3 , 1.1750 ,

2013-01-30 05:19:10 , 1058.2 , 1502.3 , 49.0 , 43 , 1440 , 857 , 43 , 19 , 0 , 60.6 , 1.1750 ,

2013-01-30 05:19:11 , 966.8 , 1502.3 , 49.0 , 42 , 1410 , 863 , 43 , 19 , 0 , 55.8 , 1.1000 ,

2013-01-30 05:19:12 , 966.8 , 1502.3 , 49.0 , 42 , 1380 , 883 , 40 , 18 , 0 , 55.0 , 1.1000 ,

2013-01-30 05:19:13 , 966.8 , 1502.3 , 49.0 , 42 , 1410 , 892 , 45 , 19 , 0 , 48.7 , 1.1000 ,

2013-01-30 05:19:14 , 1058.2 , 1502.3 , 51.0 , 42 , 1380 , 960 , 95 , 45 , 0 , 70.3 , 1.1750 ,

2013-01-30 05:19:15 , 1058.2 , 1502.3 , 51.0 , 44 , 1380 , 1011 , 81 , 35 , 0 , 75.8 , 1.1750 ,

2013-01-30 05:19:16 , 1058.2 , 1502.3 , 51.0 , 44 , 1410 , 1071 , 53 , 19 , 0 , 72.5 , 1.1750 ,

2013-01-30 05:19:17 , 1058.2 , 1502.3 , 52.0 , 44 , 1410 , 1113 , 80 , 31 , 0 , 81.0 , 1.1750 ,

2013-01-30 05:19:18 , 1058.2 , 1502.3 , 52.0 , 44 , 1440 , 1114 , 74 , 29 , 0 , 76.9 , 1.1750 ,

2013-01-30 05:19:19 , 1058.2 , 1502.3 , 52.0 , 44 , 1440 , 1114 , 74 , 31 , 0 , 80.0 , 1.1750 ,

2013-01-30 05:19:20 , 1058.2 , 1502.3 , 51.0 , 44 , 1470 , 1112 , 57 , 21 , 0 , 73.9 , 1.1750 ,

2013-01-30 05:19:21 , 1058.2 , 1502.3 , 52.0 , 44 , 1440 , 1115 , 82 , 33 , 0 , 82.2 , 1.1750 ,

2013-01-30 05:19:22 , 1058.2 , 1502.3 , 53.0 , 44 , 1440 , 1115 , 88 , 37 , 0 , 83.4 , 1.1750 ,

2013-01-30 05:19:23 , 1058.2 , 1502.3 , 53.0 , 44 , 1440 , 1115 , 88 , 37 , 0 , 81.0 , 1.1750 ,

2013-01-30 05:19:24 , 1058.2 , 1502.3 , 53.0 , 45 , 1440 , 1115 , 87 , 37 , 0 , 86.0 , 1.1750 ,

2013-01-30 05:19:25 , 1058.2 , 1502.3 , 53.0 , 44 , 1440 , 1115 , 88 , 38 , 0 , 81.7 , 1.1750 ,

2013-01-30 05:19:26 , 1058.2 , 1502.3 , 49.0 , 45 , 1470 , 1115 , 0 , 0 , 0 , 37.3 , 1.1750 ,

2013-01-30 05:19:27 , 1058.2 , 1502.3 , 48.0 , 44 , 1470 , 123 , 2 , 0 , 0 , 37.3 , 1.1750 ,

2013-01-30 05:19:28 , 1058.2 , 1502.3 , 48.0 , 44 , 1440 , 104 , 0 , 0 , 0 , 37.3 , 1.1750 ,

2013-01-30 05:19:29 , 1058.2 , 1502.3 , 47.0 , 43 , 1470 , 104 , 0 , 0 , 0 , 37.3 , 1.1750 ,

2013-01-30 05:19:30 , 1058.2 , 1502.3 , 47.0 , 43 , 1440 , 104 , 0 , 0 , 0 , 37.2 , 1.1750 ,

2013-01-30 05:19:31 , 1058.2 , 1502.3 , 47.0 , 42 , 1440 , 104 , 0 , 0 , 0 , 37.2 , 1.1750 ,

2013-01-30 05:19:32 , 1058.2 , 1502.3 , 47.0 , 42 , 1410 , 104 , 1 , 0 , 0 , 37.5 , 1.1750 ,

2013-01-30 05:19:33 , 1058.2 , 1502.3 , 46.0 , 41 , 1410 , 100 , 0 , 0 , 0 , 37.0 , 1.1870 ,

2013-01-30 05:19:35 , 1045.2 , 1502.3 , 46.0 , 41 , 1380 , 100 , 0 , 0 , 0 , 36.9 , 1.1750 ,

2013-01-30 05:19:36 , 1045.2 , 1502.3 , 46.0 , 40 , 1380 , 100 , 0 , 0 , 0 , 37.1 , 1.1750 ,

2013-01-30 05:19:37 , 1045.2 , 1502.3 , 46.0 , 40 , 1350 , 100 , 0 , 0 , 0 , 37.1 , 1.1750 ,

2013-01-30 05:19:38 , 1045.2 , 1502.3 , 46.0 , 40 , 1320 , 100 , 0 , 0 , 0 , 37.1 , 1.1750 ,

2013-01-30 05:19:39 , 1045.2 , 1502.3 , 46.0 , 40 , 1350 , 100 , 0 , 0 , 0 , 36.9 , 1.1750 ,

2013-01-30 05:19:40 , 1045.2 , 1502.3 , 46.0 , 40 , 1350 , 100 , 0 , 0 , 0 , 37.1 , 1.1750 ,

2013-01-30 05:19:41 , 1045.2 , 1502.3 , 45.0 , 40 , 1320 , 100 , 0 , 0 , 0 , 36.9 , 1.1750 ,

2013-01-30 05:19:42 , 1045.2 , 1502.3 , 45.0 , 40 , 1320 , 100 , 0 , 0 , 0 , 37.0 , 1.1750 ,

2013-01-30 05:19:43 , 1045.2 , 1502.3 , 45.0 , 40 , 1320 , 104 , 1 , 0 , 0 , 37.0 , 1.1750 ,

2013-01-30 05:19:44 , 1045.2 , 1502.3 , 45.0 , 40 , 1350 , 104 , 0 , 0 , 0 , 36.8 , 1.1750 ,

2013-01-30 05:19:45 , 1045.2 , 1502.3 , 45.0 , 40 , 1320 , 104 , 0 , 0 , 0 , 36.8 , 1.1750 ,

2013-01-30 05:19:46 , 1045.2 , 1502.3 , 45.0 , 40 , 1320 , 104 , 0 , 0 , 0 , 36.8 , 1.1750 ,

2013-01-30 05:19:47 , 1045.2 , 1502.3 , 45.0 , 40 , 1320 , 105 , 0 , 0 , 0 , 36.8 , 1.1750 ,
 
Last edited by a moderator:
Joined
Jun 3, 2007
Messages
22,398 (5.83/day)
Likes
8,921
Location
'Merica. The Great SOUTH!
System Name The Mailbox 4.5
Processor Intel i7 2600k @ 4.2GHz
Motherboard Gigabyte Z77X-UP5 TH Intel LGA 1155
Cooling Scythe Katana 4
Memory G.SKILL Sniper Series 16GB DDR3 1866: 9-9-9-24
Video Card(s) MSI 1080 "Duke" with 8Gb of RAM. Boost Clock 1847 MHz
Storage 256Gb M4 SSD, 500Gb WD (7200) 128Gb Agelity 4 SSD
Display(s) LG 29" Class 21:9 UltraWide® IPS LED Monitor 2560 x 1080
Case Cooler Master 922 HAF
Audio Device(s) SupremeFX X-Fi with Bose Companion 2 speakers.
Power Supply SeaSonic X Series X650 Gold
Mouse SteelSeries Sensei (RAW) and a Wacom Intuos 4 tablet.
Keyboard Razer BlackWidow
Software Windows 10 Pro (64-bit)
Benchmark Scores Benching is for bitches.
#29
Again what does the event viewer say.
 
Joined
Jan 22, 2013
Messages
33 (0.02/day)
Likes
1
#30
Here are some of the errors in the event viewer:
Log Name: Application
Source: Windows Error Reporting
Date: 1/27/2013 11:24:07 PM
Event ID: 1001
Task Category: None
Level: Information
Keywords: Classic
User: N/A
Computer: Bob
Description:
Fault bucket -1074341762, type 5
Event Name: RADAR_PRE_LEAK_WOW64
Response: Not available
Cab Id: 0

Problem signature:
P1: farcry3.exe
P2: 0.1.0.1
P3: 6.2.9200.2.0.0
P4:
P5:
P6:
P7:
P8:
P9:
P10:

Attached files:
C:\Users\ericf_000\AppData\Local\Temp\RDR74B0.tmp\empty.txt

These files may be available here:


Analysis symbol:
Rechecking for solution: 0
Report Id: b2f5fed9-691b-11e2-be68-5404a6b4f0e9
Report Status: 16
Hashed bucket: 7d384db9bc83c1d066188e72d2e3f2da
Event Xml:
<Event xmlns="http://schemas.microsoft.com/win/2004/08/events/event">
<System>
<Provider Name="Windows Error Reporting" />
<EventID Qualifiers="0">1001</EventID>
<Level>4</Level>
<Task>0</Task>
<Keywords>0x80000000000000</Keywords>
<TimeCreated SystemTime="2013-01-28T07:24:07.000000000Z" />
<EventRecordID>983</EventRecordID>
<Channel>Application</Channel>
<Computer>Bob</Computer>
<Security />
</System>
<EventData>
<Data>-1074341762</Data>
<Data>5</Data>
<Data>RADAR_PRE_LEAK_WOW64</Data>
<Data>Not available</Data>
<Data>0</Data>
<Data>farcry3.exe</Data>
<Data>0.1.0.1</Data>
<Data>6.2.9200.2.0.0</Data>
<Data>
</Data>
<Data>
</Data>
<Data>
</Data>
<Data>
</Data>
<Data>
</Data>
<Data>
</Data>
<Data>
</Data>
<Data>
C:\Users\ericf_000\AppData\Local\Temp\RDR74B0.tmp\empty.txt</Data>
<Data>
</Data>
<Data>
</Data>
<Data>0</Data>
<Data>b2f5fed9-691b-11e2-be68-5404a6b4f0e9</Data>
<Data>16</Data>
<Data>7d384db9bc83c1d066188e72d2e3f2da</Data>
</EventData>
</Event>




and heres another:

<Event xmlns="http://schemas.microsoft.com/win/2004/08/events/event">
- <System>
<Provider Name="Application Error" />
<EventID Qualifiers="0">1000</EventID>
<Level>2</Level>
<Task>100</Task>
<Keywords>0x80000000000000</Keywords>
<TimeCreated SystemTime="2013-01-28T16:07:39.000000000Z" />
<EventRecordID>1193</EventRecordID>
<Channel>Application</Channel>
<Computer>Bob</Computer>
<Security />
</System>
- <EventData>
<Data>farcry3.exe</Data>
<Data>0.1.0.1</Data>
<Data>50d1e630</Data>
<Data>unknown</Data>
<Data>0.0.0.0</Data>
<Data>00000000</Data>
<Data>c0000005</Data>
<Data>00000002</Data>
<Data>fb4</Data>
<Data>01cdfd6fd42ef19d</Data>
<Data>E:\FarCry 3\bin\farcry3.exe</Data>
<Data>unknown</Data>
<Data>d615f2e0-6964-11e2-be6c-5404a6b4f0e9</Data>
<Data />
<Data />
</EventData>
</Event>
 
Last edited:
Joined
Jun 3, 2007
Messages
22,398 (5.83/day)
Likes
8,921
Location
'Merica. The Great SOUTH!
System Name The Mailbox 4.5
Processor Intel i7 2600k @ 4.2GHz
Motherboard Gigabyte Z77X-UP5 TH Intel LGA 1155
Cooling Scythe Katana 4
Memory G.SKILL Sniper Series 16GB DDR3 1866: 9-9-9-24
Video Card(s) MSI 1080 "Duke" with 8Gb of RAM. Boost Clock 1847 MHz
Storage 256Gb M4 SSD, 500Gb WD (7200) 128Gb Agelity 4 SSD
Display(s) LG 29" Class 21:9 UltraWide® IPS LED Monitor 2560 x 1080
Case Cooler Master 922 HAF
Audio Device(s) SupremeFX X-Fi with Bose Companion 2 speakers.
Power Supply SeaSonic X Series X650 Gold
Mouse SteelSeries Sensei (RAW) and a Wacom Intuos 4 tablet.
Keyboard Razer BlackWidow
Software Windows 10 Pro (64-bit)
Benchmark Scores Benching is for bitches.
#31
Ok the walls of text are not helping.

Third time. WHAT DOES THE EVENT VIEWER SAY? WHAT ERROR DOES IT THROW BEFORE THE KERNAL POWER ERROR?!?!
 
Joined
Jun 3, 2007
Messages
22,398 (5.83/day)
Likes
8,921
Location
'Merica. The Great SOUTH!
System Name The Mailbox 4.5
Processor Intel i7 2600k @ 4.2GHz
Motherboard Gigabyte Z77X-UP5 TH Intel LGA 1155
Cooling Scythe Katana 4
Memory G.SKILL Sniper Series 16GB DDR3 1866: 9-9-9-24
Video Card(s) MSI 1080 "Duke" with 8Gb of RAM. Boost Clock 1847 MHz
Storage 256Gb M4 SSD, 500Gb WD (7200) 128Gb Agelity 4 SSD
Display(s) LG 29" Class 21:9 UltraWide® IPS LED Monitor 2560 x 1080
Case Cooler Master 922 HAF
Audio Device(s) SupremeFX X-Fi with Bose Companion 2 speakers.
Power Supply SeaSonic X Series X650 Gold
Mouse SteelSeries Sensei (RAW) and a Wacom Intuos 4 tablet.
Keyboard Razer BlackWidow
Software Windows 10 Pro (64-bit)
Benchmark Scores Benching is for bitches.
#33

Mussels

Moderprator
Staff member
Joined
Oct 6, 2004
Messages
46,096 (9.57/day)
Likes
13,523
Location
Australalalalalaia.
System Name Daddy Long Legs
Processor Ryzen R7 1700, 3.9GHz 1.375v
Motherboard MSI X370 Gaming PRO carbon
Cooling Fractal Celsius S24 (Silent fans, meh pump)
Memory 16GB 2133 generic @ 2800
Video Card(s) MSI GTX 1080 Gaming X (BIOS modded to Gaming Z - faster and solved black screen bugs!)
Storage 1TB Intel SSD Pro 6000p (60TB USB3 storage)
Display(s) Samsung 4K 40" HDTV (UA40KU6000WXXY) / 27" Qnix 2K 110Hz
Case Fractal Design R5. So much room, so quiet...
Audio Device(s) Pioneer VSX-519V + Yamaha YHT-270 / sennheiser HD595/518 + bob marley zion's
Power Supply Corsair HX 750i (Platinum, fan off til 300W)
Mouse Logitech G403 + KKmoon desk-sized mousepad
Keyboard Corsair K65 Rapidfire
Software Windows 10 pro x64 (all systems)
Benchmark Scores Laptops: i7-4510U + 840M 2GB (touchscreen) 275GB SSD + 16GB i7-2630QM + GT 540M + 8GB
#35
i'm going to hazard a guess here. drop back to a single stick of ram and see what happens.


i'm going to assume that the problem you've got is not the video card, but is in fact your system being unstable.
 
Joined
Jan 22, 2013
Messages
33 (0.02/day)
Likes
1
#36
Ram

I did install a new stick of ram when I installed the card and i am running on only one stick, what can i do to fix that?
 

Mussels

Moderprator
Staff member
Joined
Oct 6, 2004
Messages
46,096 (9.57/day)
Likes
13,523
Location
Australalalalalaia.
System Name Daddy Long Legs
Processor Ryzen R7 1700, 3.9GHz 1.375v
Motherboard MSI X370 Gaming PRO carbon
Cooling Fractal Celsius S24 (Silent fans, meh pump)
Memory 16GB 2133 generic @ 2800
Video Card(s) MSI GTX 1080 Gaming X (BIOS modded to Gaming Z - faster and solved black screen bugs!)
Storage 1TB Intel SSD Pro 6000p (60TB USB3 storage)
Display(s) Samsung 4K 40" HDTV (UA40KU6000WXXY) / 27" Qnix 2K 110Hz
Case Fractal Design R5. So much room, so quiet...
Audio Device(s) Pioneer VSX-519V + Yamaha YHT-270 / sennheiser HD595/518 + bob marley zion's
Power Supply Corsair HX 750i (Platinum, fan off til 300W)
Mouse Logitech G403 + KKmoon desk-sized mousepad
Keyboard Corsair K65 Rapidfire
Software Windows 10 pro x64 (all systems)
Benchmark Scores Laptops: i7-4510U + 840M 2GB (touchscreen) 275GB SSD + 16GB i7-2630QM + GT 540M + 8GB
#37
I did install a new stick of ram when I installed the card and i am running on only one stick, what can i do to fix that?
remove the new stick. try with *one* of the old sticks only.


did it not occur to you prior to now that installing ram might have been the problem, not the video card? :/
 
Joined
May 12, 2006
Messages
876 (0.21/day)
Likes
333
Location
gangsterville kingdom
System Name ROG By purecain
Processor AMD Ryzen 7 1800X
Motherboard ASUS Crosshair VI Hero
Cooling TT Water3.0 Riing edition
Memory 16Gb G.Skill Trident RGB R4000mhz
Video Card(s) TitanXpascal 12Gb
Storage 1TbSamsung EvoM.2/1TbSamsung SSD/2Tb+3TbSeagate/1TBseagate/60GbForceGT/750gbHitachi Deskstar/500gbWD
Display(s) 55"Sony Bravia X855 10bit 4K+HDR@60fps 2K+HDR@120fps IPS panel
Case Thermaltake CoreX71 Limited Edition Etched Tempered Glass Door
Audio Device(s) On board/NIcomplete audio 6
Power Supply 1200wThermaltake Toughpower
Mouse Logitech MX MASTER
Keyboard Corsair Strafe Keyboard
Software Windows10pro
#38
i didn see that coming... lol good luck...
 
Joined
Jan 22, 2013
Messages
33 (0.02/day)
Likes
1
#39
It was the ram i inserted. I reinserted the old ram and am returning the newer ram i had picked up. Sorry for wasting everyones time over something so simple, im glad its fixed though and thank you for all of your help.
 
Joined
Aug 2, 2009
Messages
4,014 (1.31/day)
Likes
1,832
System Name Abacus
Processor i5 2500K
Motherboard ASRock p67 Extreme4 Gen3
Cooling Swiftech MCP35X, EK HF Copper, 2.120 rad, 3.120 rad
Memory 2x4GB G.Skill Sniper 1600
Video Card(s) 2 Zotac GTX 770 4GB w/ FC EK Blocks
Storage WD 640BG x2/WD 250GB/Samsung 2TB
Display(s) QNIX 27" PLS
Case Corsair 700D
Audio Device(s) X-Fi XtremeGamer
Power Supply EVGA G2 750W
Mouse Logitech G500
Keyboard Corsair K70 RGB MX Brown
Software Windows 10
#40
Hurray!:toast:
 
Joined
Jan 22, 2013
Messages
33 (0.02/day)
Likes
1
#41
Still having issues

Ok so the card runs great and memory was clearly the issue and i can play for about an hour now without issue. My only problem now is that after that hour all the textures get jumbled and messed up, is that because im now back to only the 4 gb ram?
 
Joined
Jun 3, 2007
Messages
22,398 (5.83/day)
Likes
8,921
Location
'Merica. The Great SOUTH!
System Name The Mailbox 4.5
Processor Intel i7 2600k @ 4.2GHz
Motherboard Gigabyte Z77X-UP5 TH Intel LGA 1155
Cooling Scythe Katana 4
Memory G.SKILL Sniper Series 16GB DDR3 1866: 9-9-9-24
Video Card(s) MSI 1080 "Duke" with 8Gb of RAM. Boost Clock 1847 MHz
Storage 256Gb M4 SSD, 500Gb WD (7200) 128Gb Agelity 4 SSD
Display(s) LG 29" Class 21:9 UltraWide® IPS LED Monitor 2560 x 1080
Case Cooler Master 922 HAF
Audio Device(s) SupremeFX X-Fi with Bose Companion 2 speakers.
Power Supply SeaSonic X Series X650 Gold
Mouse SteelSeries Sensei (RAW) and a Wacom Intuos 4 tablet.
Keyboard Razer BlackWidow
Software Windows 10 Pro (64-bit)
Benchmark Scores Benching is for bitches.
#42
Ok so the card runs great and memory was clearly the issue and i can play for about an hour now without issue. My only problem now is that after that hour all the textures get jumbled and messed up, is that because im now back to only the 4 gb ram?
After messing around with all the drivers and such and all the trouble shooting you did I would personally just reinstall windows.
 

Mussels

Moderprator
Staff member
Joined
Oct 6, 2004
Messages
46,096 (9.57/day)
Likes
13,523
Location
Australalalalalaia.
System Name Daddy Long Legs
Processor Ryzen R7 1700, 3.9GHz 1.375v
Motherboard MSI X370 Gaming PRO carbon
Cooling Fractal Celsius S24 (Silent fans, meh pump)
Memory 16GB 2133 generic @ 2800
Video Card(s) MSI GTX 1080 Gaming X (BIOS modded to Gaming Z - faster and solved black screen bugs!)
Storage 1TB Intel SSD Pro 6000p (60TB USB3 storage)
Display(s) Samsung 4K 40" HDTV (UA40KU6000WXXY) / 27" Qnix 2K 110Hz
Case Fractal Design R5. So much room, so quiet...
Audio Device(s) Pioneer VSX-519V + Yamaha YHT-270 / sennheiser HD595/518 + bob marley zion's
Power Supply Corsair HX 750i (Platinum, fan off til 300W)
Mouse Logitech G403 + KKmoon desk-sized mousepad
Keyboard Corsair K65 Rapidfire
Software Windows 10 pro x64 (all systems)
Benchmark Scores Laptops: i7-4510U + 840M 2GB (touchscreen) 275GB SSD + 16GB i7-2630QM + GT 540M + 8GB
#44
my guess is that the ram is set up wrong, or overheating. point a fan at the RAM and see if it stops occuring.

if that doesnt work, go into the BIOS and manually set your ram voltages and timings.
 
Joined
May 19, 2012
Messages
168 (0.08/day)
Likes
4
System Name i7 960 FX8120 i5 3470
Processor i7 960 FX8120 i5 3470
Motherboard ga x58a FX990gd65 770gd45
Cooling APSALUS2-90 water cooled APSALUS2-90 water cooled stokfan
Memory Team 1600 8gbx6 patriot 1600 4gb x4 team 1600 8gbx4
Video Card(s) winfast gf 560 HIS ati6850CF R9 280 3GB
Storage 7200rmp 1gb 7200rmp 1gb 7200rmp 2gb
Display(s) 21 24 42" 3d tv
Case cooler master gigabyte tusmi
Power Supply cooler master 500w cooler master 500w enhance 600
Software win 7 64 win 7 64 win 7 64
#45
Cool

my guess is that the ram is set up wrong, or overheating. point a fan at the RAM and see if it stops occuring.

if that doesnt work, go into the BIOS and manually set your ram voltages and timings.
I never thought of that, he should mention ram change earlier, I ran mem86+ every time for ram upgrades or change, just to make sure it is good ram and under correct timing.

if he was doing some other task with this computer such as photo shop, or VM it may crush too, and we may think it was not gpu related.

But ram problems are very difficult to find, I did up my i3 notebook form 2gb to 6gb, and start to have BSOD, I never thought of ram, since it pass 4times of mem86+, each dump is related to memory or driver, so I write to MS, and MS support discussed with me for weeks, I did clean reinstall, up bios, up driver, all failed, it would randomly BSOD. once a month or once a week. finally, I though it is dual channel, and the 2 rams are different size, but google results show lately system can do dual channel with different size. so just by guessing, I got another 4gb same make ram and changed it to 8gb. Now this BSOD stops!!!!!!!!
2+4 never have problems in winxp, but do BSODs in win7, I think is that some program lock the timing in win7, and different make of the ram have unstable issue if the timing is locked to the higher ones.
 
Last edited:

Mussels

Moderprator
Staff member
Joined
Oct 6, 2004
Messages
46,096 (9.57/day)
Likes
13,523
Location
Australalalalalaia.
System Name Daddy Long Legs
Processor Ryzen R7 1700, 3.9GHz 1.375v
Motherboard MSI X370 Gaming PRO carbon
Cooling Fractal Celsius S24 (Silent fans, meh pump)
Memory 16GB 2133 generic @ 2800
Video Card(s) MSI GTX 1080 Gaming X (BIOS modded to Gaming Z - faster and solved black screen bugs!)
Storage 1TB Intel SSD Pro 6000p (60TB USB3 storage)
Display(s) Samsung 4K 40" HDTV (UA40KU6000WXXY) / 27" Qnix 2K 110Hz
Case Fractal Design R5. So much room, so quiet...
Audio Device(s) Pioneer VSX-519V + Yamaha YHT-270 / sennheiser HD595/518 + bob marley zion's
Power Supply Corsair HX 750i (Platinum, fan off til 300W)
Mouse Logitech G403 + KKmoon desk-sized mousepad
Keyboard Corsair K65 Rapidfire
Software Windows 10 pro x64 (all systems)
Benchmark Scores Laptops: i7-4510U + 840M 2GB (touchscreen) 275GB SSD + 16GB i7-2630QM + GT 540M + 8GB
#46
the reason 2+4 never had issues in XP is because XP cant use more than 4GB. so it simply wasnt using enough of the ram.

you are correct that RAM can behave like that, its why i never mix and match. doesnt matter if it powers up or not, doesnt mean its stable or that the memory controller can handle it.
 
Joined
May 19, 2012
Messages
168 (0.08/day)
Likes
4
System Name i7 960 FX8120 i5 3470
Processor i7 960 FX8120 i5 3470
Motherboard ga x58a FX990gd65 770gd45
Cooling APSALUS2-90 water cooled APSALUS2-90 water cooled stokfan
Memory Team 1600 8gbx6 patriot 1600 4gb x4 team 1600 8gbx4
Video Card(s) winfast gf 560 HIS ati6850CF R9 280 3GB
Storage 7200rmp 1gb 7200rmp 1gb 7200rmp 2gb
Display(s) 21 24 42" 3d tv
Case cooler master gigabyte tusmi
Power Supply cooler master 500w cooler master 500w enhance 600
Software win 7 64 win 7 64 win 7 64
#47
agreed

the reason 2+4 never had issues in XP is because XP cant use more than 4GB. so it simply wasnt using enough of the ram.

you are correct that RAM can behave like that, its why i never mix and match. doesnt matter if it powers up or not, doesnt mean its stable or that the memory controller can handle it.
yes, mostly, if it is notebook, no timing to change, very little setting in bios